createdAt,value
2018-03-29T00:00:12.090Z,84.68
2018-03-29T00:01:12.207Z,84.87
2018-03-29T00:02:12.361Z,85.44
2018-03-29T00:03:12.472Z,85.77
2018-03-29T00:04:12.602Z,85.11
2018-03-29T00:05:12.680Z,84.82
2018-03-29T00:06:12.823Z,85.30
2018-03-29T00:07:13.114Z,85.30
2018-03-29T00:08:13.222Z,85.72
2018-03-29T00:09:13.357Z,86.05
2018-03-29T00:10:14.080Z,85.63
2018-03-29T00:11:13.879Z,85.53
2018-03-29T00:12:14.063Z,85.91
2018-03-29T00:13:14.145Z,85.16
2018-03-29T00:14:14.168Z,85.44
2018-03-29T00:15:14.343Z,85.63
2018-03-29T00:16:14.764Z,85.63
2018-03-29T00:17:14.647Z,86.01
2018-03-29T00:18:14.879Z,86.30
2018-03-29T00:19:15.064Z,86.01
2018-03-29T00:20:15.027Z,86.77
2018-03-29T00:21:15.206Z,86.11
2018-03-29T00:22:15.387Z,85.25
2018-03-29T00:23:15.569Z,85.30
2018-03-29T00:24:15.746Z,85.06
2018-03-29T00:25:15.953Z,84.49
2018-03-29T00:26:16.106Z,83.97
2018-03-29T00:27:16.285Z,84.53
2018-03-29T00:28:16.459Z,84.40
2018-03-29T00:29:16.630Z,84.40
2018-03-29T00:30:16.809Z,85.35
2018-03-29T00:31:16.992Z,85.06
2018-03-29T00:32:17.178Z,85.44
2018-03-29T00:33:17.360Z,85.06
2018-03-29T00:34:17.542Z,84.30
2018-03-29T00:35:17.721Z,85.16
2018-03-29T00:36:17.904Z,85.16
2018-03-29T00:37:18.086Z,84.87
2018-03-29T00:38:18.262Z,85.16
2018-03-29T00:39:18.444Z,84.68
2018-03-29T00:40:18.617Z,84.49
2018-03-29T00:41:18.789Z,84.21
2018-03-29T00:42:18.963Z,84.01
2018-03-29T00:43:19.142Z,83.73
2018-03-29T00:44:19.322Z,83.92
2018-03-29T00:45:19.503Z,83.64
2018-03-29T00:46:19.683Z,83.73
2018-03-29T00:47:19.864Z,84.11
2018-03-29T00:48:20.043Z,84.11
2018-03-29T00:49:20.228Z,84.21
2018-03-29T00:50:20.412Z,84.01
2018-03-29T00:51:20.596Z,83.83
2018-03-29T00:52:20.778Z,84.01
2018-03-29T00:53:20.953Z,84.01
2018-03-29T00:54:21.128Z,82.97
2018-03-29T00:55:21.307Z,83.36
2018-03-29T00:56:21.484Z,83.26
2018-03-29T00:57:21.661Z,83.45
2018-03-29T00:58:21.839Z,83.16
2018-03-29T00:59:22.017Z,82.59
2018-03-29T01:00:22.193Z,82.78
2018-03-29T01:01:22.376Z,82.50
2018-03-29T01:02:22.553Z,82.50
2018-03-29T01:03:22.734Z,82.21
2018-03-29T01:04:22.917Z,81.65
2018-03-29T01:05:23.099Z,81.26
2018-03-29T01:06:23.280Z,81.84
2018-03-29T01:07:23.458Z,82.31
2018-03-29T01:08:23.633Z,81.74
2018-03-29T01:09:23.808Z,81.36
2018-03-29T01:10:24.035Z,81.26
2018-03-29T01:11:24.169Z,81.65
2018-03-29T01:12:24.351Z,81.74
2018-03-29T01:13:24.531Z,82.31
2018-03-29T01:14:24.708Z,82.40
2018-03-29T01:15:24.888Z,82.88
2018-03-29T01:16:25.068Z,82.40
2018-03-29T01:17:25.246Z,82.78
2018-03-29T01:18:25.423Z,82.97
2018-03-29T01:19:25.602Z,83.16
2018-03-29T01:20:25.779Z,82.78
2018-03-29T01:21:25.952Z,82.31
2018-03-29T01:22:26.130Z,83.54
2018-03-29T01:23:26.309Z,82.69
2018-03-29T01:24:26.487Z,82.69
2018-03-29T01:25:26.662Z,82.78
2018-03-29T01:26:26.845Z,83.07
2018-03-29T01:27:27.026Z,83.16
2018-03-29T01:28:27.199Z,82.97
2018-03-29T01:29:27.377Z,82.50
2018-03-29T01:30:27.559Z,82.21
2018-03-29T01:31:27.756Z,82.69
2018-03-29T01:32:27.918Z,82.69
2018-03-29T01:33:28.096Z,82.69
2018-03-29T01:34:28.269Z,82.03
2018-03-29T01:35:28.447Z,82.78
2018-03-29T01:36:28.632Z,83.07
2018-03-29T01:37:28.813Z,82.78
2018-03-29T01:38:28.994Z,82.78
2018-03-29T01:39:29.166Z,82.50
2018-03-29T01:40:29.348Z,82.69
2018-03-29T01:41:29.534Z,82.88
2018-03-29T01:42:29.751Z,83.26
2018-03-29T01:43:29.815Z,83.26
2018-03-29T01:44:29.990Z,83.07
2018-03-29T01:45:30.167Z,82.78
2018-03-29T01:46:30.346Z,82.50
2018-03-29T01:47:30.530Z,82.50
2018-03-29T01:48:30.702Z,83.07
2018-03-29T01:49:30.884Z,82.93
2018-03-29T01:50:31.063Z,82.27
2018-03-29T01:51:31.244Z,83.03
2018-03-29T01:52:31.423Z,82.74
2018-03-29T01:53:31.603Z,83.31
2018-03-29T01:54:31.782Z,82.93
2018-03-29T01:55:31.956Z,82.93
2018-03-29T01:56:32.139Z,82.65
2018-03-29T01:57:32.314Z,82.84
2018-03-29T01:58:32.490Z,83.97
2018-03-29T01:59:32.668Z,83.31
2018-03-29T02:00:32.852Z,82.93
2018-03-29T02:01:33.036Z,83.22
2018-03-29T02:02:33.214Z,83.03
2018-03-29T02:03:33.397Z,82.93
2018-03-29T02:04:33.575Z,82.93
2018-03-29T02:05:33.748Z,82.74
2018-03-29T02:06:33.925Z,83.03
2018-03-29T02:07:34.102Z,82.93
2018-03-29T02:08:34.288Z,83.22
2018-03-29T02:09:34.468Z,83.22
2018-03-29T02:10:34.648Z,83.97
2018-03-29T02:11:34.826Z,84.26
2018-03-29T02:12:35.006Z,84.17
2018-03-29T02:13:35.181Z,84.07
2018-03-29T02:14:35.358Z,84.26
2018-03-29T02:15:35.543Z,83.88
2018-03-29T02:16:35.717Z,83.97
2018-03-29T02:17:35.896Z,83.50
2018-03-29T02:18:36.073Z,83.31
2018-03-29T02:19:36.249Z,83.50
2018-03-29T02:20:36.426Z,83.31
2018-03-29T02:21:36.602Z,83.12
2018-03-29T02:22:36.777Z,82.65
2018-03-29T02:23:36.957Z,82.65
2018-03-29T02:24:37.133Z,82.46
2018-03-29T02:25:37.323Z,82.84
2018-03-29T02:26:37.492Z,82.84
2018-03-29T02:27:37.669Z,83.31
2018-03-29T02:28:37.852Z,82.17
2018-03-29T02:29:38.033Z,81.79
2018-03-29T02:30:38.218Z,81.51
2018-03-29T02:31:38.401Z,81.41
2018-03-29T02:32:38.572Z,81.70
2018-03-29T02:33:38.749Z,80.65
2018-03-29T02:34:38.927Z,81.41
2018-03-29T02:35:39.104Z,82.08
2018-03-29T02:36:39.284Z,82.36
2018-03-29T02:37:39.459Z,82.46
2018-03-29T02:38:39.638Z,82.27
2018-03-29T02:39:39.817Z,82.17
2018-03-29T02:40:39.995Z,82.46
2018-03-29T02:41:40.225Z,82.46
2018-03-29T02:42:40.357Z,82.74
2018-03-29T02:43:40.540Z,81.98
2018-03-29T02:44:40.723Z,81.88
2018-03-29T02:45:40.901Z,81.79
2018-03-29T02:46:41.088Z,82.55
2018-03-29T02:47:41.269Z,82.84
2018-03-29T02:48:41.451Z,82.36
2018-03-29T02:49:41.634Z,81.60
2018-03-29T02:50:41.808Z,81.70
2018-03-29T02:51:41.990Z,81.51
2018-03-29T02:52:42.748Z,81.88
2018-03-29T02:53:42.297Z,82.08
2018-03-29T02:54:42.482Z,81.51
2018-03-29T02:55:42.658Z,81.41
2018-03-29T02:56:42.840Z,81.41
2018-03-29T02:57:43.021Z,81.70
2018-03-29T02:58:43.193Z,81.13
2018-03-29T02:59:43.373Z,81.13
2018-03-29T03:00:43.555Z,81.60
2018-03-29T03:01:43.733Z,82.08
2018-03-29T03:02:43.903Z,81.88
2018-03-29T03:03:44.085Z,81.23
2018-03-29T03:04:44.259Z,81.13
2018-03-29T03:05:44.443Z,81.27
2018-03-29T03:06:44.620Z,81.66
2018-03-29T03:07:44.803Z,81.75
2018-03-29T03:08:44.985Z,81.56
2018-03-29T03:09:45.157Z,81.75
2018-03-29T03:10:45.341Z,81.94
2018-03-29T03:11:45.525Z,81.75
2018-03-29T03:12:45.708Z,82.04
2018-03-29T03:13:45.883Z,82.23
2018-03-29T03:14:48.516Z,82.13
2018-03-29T03:15:51.591Z,82.70
2018-03-29T03:16:48.534Z,82.42
2018-03-29T03:17:50.865Z,82.51
2018-03-29T03:18:50.296Z,82.04
2018-03-29T03:19:51.247Z,82.60
2018-03-29T03:20:51.092Z,81.85
2018-03-29T03:21:51.314Z,82.13
2018-03-29T03:22:52.089Z,81.75
2018-03-29T03:23:52.129Z,82.42
2018-03-29T03:24:49.109Z,82.32
2018-03-29T03:25:50.412Z,81.94
2018-03-29T03:26:51.992Z,82.32
2018-03-29T03:27:52.139Z,81.94
2018-03-29T03:28:48.249Z,81.94
2018-03-29T03:29:48.424Z,81.85
2018-03-29T03:30:48.601Z,82.13
2018-03-29T03:31:48.778Z,81.85
2018-03-29T03:32:48.956Z,82.42
2018-03-29T03:33:49.135Z,82.60
2018-03-29T03:34:49.313Z,81.85
2018-03-29T03:35:49.484Z,81.85
2018-03-29T03:36:49.669Z,82.04
2018-03-29T03:37:49.850Z,82.04
2018-03-29T03:38:50.031Z,82.04
2018-03-29T03:39:50.215Z,82.32
2018-03-29T03:40:50.392Z,82.23
2018-03-29T03:41:50.573Z,82.51
2018-03-29T03:42:50.746Z,82.42
2018-03-29T03:43:50.933Z,82.23
2018-03-29T03:44:51.107Z,82.51
2018-03-29T03:45:51.291Z,82.70
2018-03-29T03:46:51.480Z,81.94
2018-03-29T03:47:51.652Z,82.65
2018-03-29T03:48:51.839Z,82.74
2018-03-29T03:49:52.015Z,82.74
2018-03-29T03:50:52.202Z,82.27
2018-03-29T03:51:52.376Z,82.27
2018-03-29T03:52:52.554Z,82.42
2018-03-29T03:53:52.737Z,82.55
2018-03-29T03:54:52.914Z,82.08
2018-03-29T03:55:53.101Z,82.46
2018-03-29T03:56:53.280Z,82.08
2018-03-29T03:57:53.472Z,81.60
2018-03-29T03:58:53.649Z,81.23
2018-03-29T03:59:53.831Z,81.04
2018-03-29T04:00:54.032Z,81.23
2018-03-29T04:01:54.228Z,81.70
2018-03-29T04:02:54.398Z,81.60
2018-03-29T04:03:54.580Z,81.04
2018-03-29T04:04:54.757Z,81.04
2018-03-29T04:05:54.941Z,80.75
2018-03-29T04:06:55.116Z,80.37
2018-03-29T04:07:55.293Z,80.56
2018-03-29T04:08:55.470Z,80.84
2018-03-29T04:09:55.654Z,81.32
2018-03-29T04:10:55.848Z,81.41
2018-03-29T04:11:56.028Z,81.32
2018-03-29T04:12:56.205Z,81.75
2018-03-29T04:13:56.379Z,81.66
2018-03-29T04:14:56.557Z,81.85
2018-03-29T04:15:56.733Z,81.94
2018-03-29T04:16:56.907Z,82.04
2018-03-29T04:17:57.086Z,82.51
2018-03-29T04:18:57.276Z,82.79
2018-03-29T04:19:57.482Z,82.70
2018-03-29T04:20:57.626Z,82.60
2018-03-29T04:21:57.818Z,82.23
2018-03-29T04:22:57.983Z,81.94
2018-03-29T04:23:58.160Z,82.89
2018-03-29T04:24:58.341Z,82.51
2018-03-29T04:25:58.540Z,82.42
2018-03-29T04:26:58.720Z,82.79
2018-03-29T04:27:58.901Z,82.70
2018-03-29T04:28:59.123Z,82.42
2018-03-29T04:29:59.296Z,82.60
2018-03-29T04:30:59.478Z,82.51
2018-03-29T04:31:59.656Z,82.98
2018-03-29T04:32:59.834Z,83.17
2018-03-29T04:34:00.012Z,83.08
2018-03-29T04:35:00.189Z,83.65
2018-03-29T04:36:00.367Z,83.17
2018-03-29T04:37:00.541Z,82.79
2018-03-29T04:38:00.716Z,83.08
2018-03-29T04:39:00.893Z,82.89
2018-03-29T04:40:01.075Z,83.08
2018-03-29T04:41:01.255Z,82.89
2018-03-29T04:42:01.433Z,82.98
2018-03-29T04:43:01.613Z,82.42
2018-03-29T04:44:01.794Z,82.51
2018-03-29T04:45:01.996Z,82.70
2018-03-29T04:46:02.186Z,82.70
2018-03-29T04:47:02.374Z,82.70
2018-03-29T04:48:05.144Z,82.42
2018-03-29T04:49:04.371Z,82.70
2018-03-29T04:50:04.772Z,82.51
2018-03-29T04:51:05.821Z,82.89
2018-03-29T04:52:05.509Z,82.70
2018-03-29T04:53:07.226Z,82.42
2018-03-29T04:54:04.995Z,82.51
2018-03-29T04:55:03.560Z,82.60
2018-03-29T04:56:03.738Z,81.37
2018-03-29T04:57:03.921Z,81.75
2018-03-29T04:58:04.099Z,82.51
2018-03-29T04:59:04.288Z,82.51
2018-03-29T05:00:04.474Z,82.51
2018-03-29T05:01:04.657Z,82.98
2018-03-29T05:02:04.838Z,82.79
2018-03-29T05:03:05.012Z,83.23
2018-03-29T05:04:05.344Z,83.17
2018-03-29T05:05:05.398Z,83.23
2018-03-29T05:06:05.583Z,82.94
2018-03-29T05:07:08.312Z,83.70
2018-03-29T05:08:08.127Z,83.89
2018-03-29T05:09:08.873Z,83.80
2018-03-29T05:10:08.727Z,83.61
2018-03-29T05:11:07.504Z,83.98
2018-03-29T05:12:06.656Z,84.84
2018-03-29T05:13:06.827Z,85.31
2018-03-29T05:14:07.008Z,85.22
2018-03-29T05:15:07.207Z,84.46
2018-03-29T05:16:07.379Z,84.36
2018-03-29T05:17:09.408Z,85.03
2018-03-29T05:18:10.521Z,85.22
2018-03-29T05:19:10.145Z,84.17
2018-03-29T05:20:11.982Z,85.22
2018-03-29T05:21:10.242Z,84.08
2018-03-29T05:22:12.300Z,83.98
2018-03-29T05:23:11.624Z,83.65
2018-03-29T05:24:10.088Z,83.89
2018-03-29T05:25:10.837Z,83.84
2018-03-29T05:26:10.865Z,83.65
2018-03-29T05:27:09.925Z,84.03
2018-03-29T05:28:12.363Z,83.55
2018-03-29T05:29:12.169Z,83.27
2018-03-29T05:30:12.248Z,82.89
2018-03-29T05:31:10.494Z,82.98
2018-03-29T05:32:15.389Z,82.70
2018-03-29T05:33:13.290Z,82.79
2018-03-29T05:34:13.473Z,82.79
2018-03-29T05:35:12.082Z,82.79
2018-03-29T05:36:14.833Z,82.51
2018-03-29T05:37:14.433Z,83.17
2018-03-29T05:38:15.514Z,83.17
2018-03-29T05:39:14.587Z,82.98
2018-03-29T05:40:13.011Z,83.17
2018-03-29T05:41:13.373Z,82.98
2018-03-29T05:42:11.516Z,83.08
2018-03-29T05:43:11.704Z,82.89
2018-03-29T05:44:11.875Z,82.98
2018-03-29T05:45:12.400Z,82.79
2018-03-29T05:46:12.189Z,82.98
2018-03-29T05:47:12.354Z,83.46
2018-03-29T05:48:12.722Z,83.74
2018-03-29T05:49:13.021Z,83.84
2018-03-29T05:50:12.941Z,84.03
2018-03-29T05:51:13.126Z,83.08
2018-03-29T05:52:13.308Z,83.36
2018-03-29T05:53:13.481Z,82.98
2018-03-29T05:54:13.653Z,83.17
2018-03-29T05:55:13.837Z,82.79
2018-03-29T05:56:14.004Z,83.17
2018-03-29T05:57:14.205Z,82.60
2018-03-29T05:58:14.362Z,82.42
2018-03-29T05:59:14.540Z,82.23
2018-03-29T06:00:14.725Z,82.23
2018-03-29T06:01:14.900Z,82.08
2018-03-29T06:02:15.076Z,82.08
2018-03-29T06:03:15.299Z,81.79
2018-03-29T06:04:15.428Z,81.41
2018-03-29T06:05:15.613Z,80.84
2018-03-29T06:06:15.791Z,81.04
2018-03-29T06:07:15.975Z,81.23
2018-03-29T06:08:16.156Z,80.84
2018-03-29T06:09:16.332Z,80.94
2018-03-29T06:10:16.525Z,81.04
2018-03-29T06:11:16.725Z,80.65
2018-03-29T06:12:17.200Z,80.56
2018-03-29T06:13:17.284Z,80.75
2018-03-29T06:14:17.666Z,80.56
2018-03-29T06:15:17.556Z,81.04
2018-03-29T06:16:20.515Z,81.09
2018-03-29T06:17:18.048Z,81.60
2018-03-29T06:18:18.168Z,81.32
2018-03-29T06:19:18.227Z,80.84
2018-03-29T06:20:18.309Z,80.46
2018-03-29T06:21:19.681Z,80.56
2018-03-29T06:22:18.745Z,80.65
2018-03-29T06:23:19.067Z,80.75
2018-03-29T06:24:19.205Z,79.23
2018-03-29T06:25:19.262Z,78.09
2018-03-29T06:26:19.458Z,78.47
2018-03-29T06:27:19.638Z,79.71
2018-03-29T06:28:20.029Z,79.23
2018-03-29T06:29:20.022Z,78.95
2018-03-29T06:30:19.825Z,78.56
2018-03-29T06:31:20.010Z,78.66
2018-03-29T06:32:20.199Z,78.00
2018-03-29T06:33:20.380Z,78.47
2018-03-29T06:34:21.409Z,78.38
2018-03-29T06:35:20.712Z,77.14
2018-03-29T06:36:20.890Z,77.52
2018-03-29T06:37:21.415Z,77.52
2018-03-29T06:38:21.225Z,77.71
2018-03-29T06:39:21.405Z,77.90
2018-03-29T06:40:21.582Z,78.47
2018-03-29T06:41:21.751Z,78.47
2018-03-29T06:42:21.929Z,78.47
2018-03-29T06:43:22.116Z,78.47
2018-03-29T06:44:22.289Z,78.47
2018-03-29T06:45:22.652Z,78.38
2018-03-29T06:46:22.914Z,78.47
2018-03-29T06:47:22.824Z,78.95
2018-03-29T06:48:23.014Z,78.66
2018-03-29T06:49:23.184Z,78.23
2018-03-29T06:50:23.365Z,78.42
2018-03-29T06:51:23.544Z,78.32
2018-03-29T06:52:25.354Z,78.70
2018-03-29T06:53:23.904Z,79.08
2018-03-29T06:54:25.614Z,78.42
2018-03-29T06:55:24.231Z,78.13
2018-03-29T06:56:24.894Z,77.47
2018-03-29T06:57:26.549Z,77.79
2018-03-29T06:58:25.282Z,77.56
2018-03-29T06:59:24.849Z,76.90
2018-03-29T07:00:25.050Z,77.31
2018-03-29T07:01:25.220Z,76.46
2018-03-29T07:02:25.569Z,76.37
2018-03-29T07:03:25.523Z,76.75
2018-03-29T07:04:25.722Z,76.75
2018-03-29T07:05:25.895Z,76.65
2018-03-29T07:06:26.886Z,76.84
2018-03-29T07:07:26.320Z,76.65
2018-03-29T07:08:26.480Z,76.27
2018-03-29T07:09:26.851Z,76.93
2018-03-29T07:10:26.791Z,75.89
2018-03-29T07:11:26.988Z,75.99
2018-03-29T07:12:27.167Z,76.18
2018-03-29T07:13:27.341Z,74.85
2018-03-29T07:14:27.522Z,74.66
2018-03-29T07:15:27.697Z,74.03
2018-03-29T07:16:27.878Z,72.26
2018-03-29T07:17:28.053Z,70.45
2018-03-29T07:18:28.231Z,71.31
2018-03-29T07:19:28.400Z,71.69
2018-03-29T07:20:28.588Z,71.22
2018-03-29T07:21:28.903Z,71.22
2018-03-29T07:22:28.958Z,71.27
2018-03-29T07:23:29.181Z,71.75
2018-03-29T07:24:29.341Z,71.66
2018-03-29T07:25:29.524Z,71.46
2018-03-29T07:26:29.733Z,71.27
2018-03-29T07:27:29.906Z,70.83
2018-03-29T07:28:30.302Z,70.64
2018-03-29T07:29:30.204Z,70.17
2018-03-29T07:30:31.730Z,69.92
2018-03-29T07:31:30.496Z,69.82
2018-03-29T07:32:30.675Z,68.59
2018-03-29T07:33:30.858Z,66.43
2018-03-29T07:34:31.036Z,65.67
2018-03-29T07:35:31.930Z,66.02
2018-03-29T07:36:31.676Z,66.33
2018-03-29T07:37:34.802Z,66.78
2018-03-29T07:38:31.820Z,67.44
2018-03-29T07:39:33.915Z,66.97
2018-03-29T07:40:33.851Z,66.97
2018-03-29T07:41:33.537Z,65.95
2018-03-29T07:42:33.951Z,65.64
2018-03-29T07:43:32.547Z,64.56
2018-03-29T07:44:35.352Z,63.13
2018-03-29T07:45:33.005Z,62.59
2018-03-29T07:46:35.421Z,61.73
2018-03-29T07:47:35.637Z,61.99
2018-03-29T07:48:34.350Z,63.20
2018-03-29T07:49:34.055Z,63.01
2018-03-29T07:50:34.371Z,63.83
2018-03-29T07:51:33.957Z,64.40
2018-03-29T07:52:34.700Z,65.58
2018-03-29T07:53:35.052Z,65.35
2018-03-29T07:54:35.495Z,65.64
2018-03-29T07:55:35.222Z,66.39
2018-03-29T07:56:35.919Z,66.33
2018-03-29T07:57:35.485Z,65.67
2018-03-29T07:58:34.918Z,65.38
2018-03-29T07:59:35.129Z,65.38
2018-03-29T08:00:35.420Z,64.97
2018-03-29T08:01:35.648Z,64.47
2018-03-29T08:02:35.602Z,63.26
2018-03-29T08:03:35.772Z,57.85
2018-03-29T08:04:35.952Z,53.00
2018-03-29T08:05:36.134Z,50.02
2018-03-29T08:06:36.315Z,46.91
2018-03-29T08:07:36.502Z,45.26
2018-03-29T08:08:37.065Z,45.98
2018-03-29T08:09:39.534Z,47.73
2018-03-29T08:10:39.136Z,50.49
2018-03-29T08:11:39.970Z,51.59
2018-03-29T08:12:39.324Z,54.21
2018-03-29T08:13:41.287Z,56.02
2018-03-29T08:14:39.545Z,55.83
2018-03-29T08:15:41.037Z,56.78
2018-03-29T08:16:40.478Z,57.26
2018-03-29T08:17:40.627Z,57.28
2018-03-29T08:18:41.923Z,54.74
2018-03-29T08:19:42.244Z,52.79
2018-03-29T08:20:41.757Z,52.72
2018-03-29T08:21:39.292Z,50.14
2018-03-29T08:22:40.935Z,50.21
2018-03-29T08:23:41.954Z,50.35
2018-03-29T08:24:40.884Z,52.49
2018-03-29T08:25:41.561Z,53.83
2018-03-29T08:26:41.870Z,54.68
2018-03-29T08:27:43.249Z,55.83
2018-03-29T08:28:40.035Z,55.99
2018-03-29T08:29:40.080Z,57.42
2018-03-29T08:30:40.257Z,56.94
2018-03-29T08:31:42.012Z,56.65
2018-03-29T08:32:40.811Z,57.39
2018-03-29T08:33:41.987Z,58.31
2018-03-29T08:34:40.902Z,59.27
2018-03-29T08:35:41.103Z,60.97
2018-03-29T08:36:42.732Z,60.97
2018-03-29T08:37:41.424Z,60.88
2018-03-29T08:38:41.701Z,60.21
2018-03-29T08:39:41.764Z,58.28
2018-03-29T08:40:41.964Z,56.59
2018-03-29T08:41:42.162Z,55.66
2018-03-29T08:42:45.865Z,54.97
2018-03-29T08:43:42.538Z,56.30
2018-03-29T08:44:42.762Z,56.59
2018-03-29T08:45:42.951Z,56.68
2018-03-29T08:46:43.005Z,55.80
2018-03-29T08:47:43.202Z,56.75
2018-03-29T08:48:43.411Z,56.92
2018-03-29T08:49:43.599Z,57.58
2018-03-29T08:50:43.780Z,57.80
2018-03-29T08:51:43.961Z,58.06
2018-03-29T08:52:44.148Z,58.91
2018-03-29T08:53:44.673Z,59.58
2018-03-29T08:54:46.445Z,59.20
2018-03-29T08:55:45.092Z,59.20
2018-03-29T08:56:45.293Z,60.24
2018-03-29T08:57:45.632Z,60.82
2018-03-29T08:58:45.149Z,59.55
2018-03-29T08:59:45.387Z,58.69
2018-03-29T09:00:45.649Z,59.36
2018-03-29T09:01:47.114Z,59.17
2018-03-29T09:02:48.090Z,59.45
2018-03-29T09:03:46.787Z,60.21
2018-03-29T09:04:48.300Z,60.69
2018-03-29T09:05:47.522Z,61.32
2018-03-29T09:06:46.664Z,60.94
2018-03-29T09:07:49.366Z,61.04
2018-03-29T09:08:49.505Z,61.52
2018-03-29T09:09:48.064Z,60.75
2018-03-29T09:10:47.844Z,59.80
2018-03-29T09:11:48.777Z,60.38
2018-03-29T09:12:48.578Z,60.75
2018-03-29T09:13:51.816Z,60.75
2018-03-29T09:14:47.818Z,60.47
2018-03-29T09:15:48.039Z,60.18
2018-03-29T09:16:48.262Z,60.57
2018-03-29T09:17:48.429Z,60.57
2018-03-29T09:18:48.618Z,60.57
2018-03-29T09:19:51.681Z,60.18
2018-03-29T09:20:51.994Z,60.57
2018-03-29T09:21:49.663Z,60.57
2018-03-29T09:22:49.361Z,61.71
2018-03-29T09:23:49.591Z,61.99
2018-03-29T09:24:49.723Z,62.18
2018-03-29T09:25:49.918Z,62.46
2018-03-29T09:26:50.110Z,62.46
2018-03-29T09:27:50.327Z,61.80
2018-03-29T09:28:50.493Z,61.96
2018-03-29T09:29:50.806Z,62.65
2018-03-29T09:30:50.767Z,62.65
2018-03-29T09:31:51.266Z,62.08
2018-03-29T09:32:51.421Z,62.40
2018-03-29T09:33:51.516Z,62.02
2018-03-29T09:34:51.397Z,61.48
2018-03-29T09:35:51.584Z,59.86
2018-03-29T09:36:51.959Z,59.39
2018-03-29T09:37:52.108Z,58.81
2018-03-29T09:38:52.361Z,58.72
2018-03-29T09:39:53.658Z,59.48
2018-03-29T09:40:53.466Z,60.15
2018-03-29T09:41:54.438Z,59.23
2018-03-29T09:42:55.372Z,57.60
2018-03-29T09:43:56.602Z,57.01
2018-03-29T09:44:55.140Z,58.44
2018-03-29T09:45:55.795Z,58.53
2018-03-29T09:46:55.592Z,57.67
2018-03-29T09:47:55.515Z,55.31
2018-03-29T09:48:55.861Z,52.64
2018-03-29T09:49:54.752Z,52.76
2018-03-29T09:50:54.808Z,50.04
2018-03-29T09:51:55.956Z,50.09
2018-03-29T09:52:55.397Z,51.40
2018-03-29T09:53:55.602Z,52.36
2018-03-29T09:54:55.615Z,54.14
2018-03-29T09:55:55.834Z,53.92
2018-03-29T09:56:55.914Z,54.43
2018-03-29T09:57:57.072Z,54.14
2018-03-29T09:58:56.187Z,53.69
2018-03-29T09:59:56.960Z,49.30
2018-03-29T10:00:56.369Z,47.82
2018-03-29T10:01:56.436Z,50.07
2018-03-29T10:02:56.597Z,52.30
2018-03-29T10:03:56.367Z,53.06
2018-03-29T10:04:56.760Z,53.47
2018-03-29T10:05:56.765Z,53.78
2018-03-29T10:06:56.994Z,51.52
2018-03-29T10:07:57.164Z,51.88
2018-03-29T10:08:57.364Z,52.07
2018-03-29T10:09:57.560Z,51.97
2018-03-29T10:10:57.787Z,53.00
2018-03-29T10:11:57.955Z,53.66
2018-03-29T10:12:58.139Z,54.52
2018-03-29T10:13:58.324Z,54.78
2018-03-29T10:14:58.524Z,55.54
2018-03-29T10:15:58.724Z,55.63
2018-03-29T10:16:58.912Z,55.51
2018-03-29T10:17:59.086Z,56.53
2018-03-29T10:18:59.317Z,57.01
2018-03-29T10:19:59.379Z,57.55
2018-03-29T10:20:59.589Z,58.40
2018-03-29T10:21:59.781Z,59.17
2018-03-29T10:22:59.966Z,60.31
2018-03-29T10:24:00.150Z,60.60
2018-03-29T10:25:00.325Z,60.41
2018-03-29T10:26:00.507Z,60.12
2018-03-29T10:27:00.682Z,61.26
2018-03-29T10:28:00.871Z,60.21
2018-03-29T10:29:01.047Z,60.12
2018-03-29T10:30:01.224Z,60.02
2018-03-29T10:31:01.400Z,60.02
2018-03-29T10:32:01.591Z,60.12
2018-03-29T10:33:01.756Z,59.36
2018-03-29T10:34:01.966Z,59.45
2018-03-29T10:35:02.145Z,60.21
2018-03-29T10:36:02.315Z,59.86
2018-03-29T10:37:02.506Z,58.81
2018-03-29T10:38:02.681Z,58.34
2018-03-29T10:39:02.857Z,58.34
2018-03-29T10:40:03.038Z,58.34
2018-03-29T10:41:03.219Z,58.34
2018-03-29T10:42:03.404Z,58.31
2018-03-29T10:43:03.582Z,58.88
2018-03-29T11:35:48.496Z,65.58
2018-03-29T11:36:48.534Z,65.10
2018-03-29T11:37:48.718Z,65.29
2018-03-29T11:38:48.956Z,64.34
2018-03-29T11:39:49.073Z,64.34
2018-03-29T11:40:49.259Z,64.43
2018-03-29T11:41:49.442Z,64.37
2018-03-29T11:42:49.641Z,62.81
2018-03-29T11:43:49.834Z,62.65
2018-03-29T11:44:50.052Z,62.56
2018-03-29T11:45:50.834Z,61.90
2018-03-29T11:46:51.457Z,61.90
2018-03-29T11:47:50.792Z,63.13
2018-03-29T11:48:50.725Z,61.90
2018-03-29T11:49:50.888Z,61.32
2018-03-29T11:50:51.142Z,60.66
2018-03-29T11:51:51.262Z,60.82
2018-03-29T11:52:51.638Z,61.77
2018-03-29T11:53:51.843Z,61.51
2018-03-29T11:54:51.824Z,61.58
2018-03-29T11:55:52.014Z,61.00
2018-03-29T11:56:52.193Z,61.10
2018-03-29T11:57:52.739Z,61.19
2018-03-29T11:58:52.753Z,61.67
2018-03-29T11:59:52.607Z,61.55
2018-03-29T12:00:53.096Z,62.78
2018-03-29T12:01:53.087Z,64.31
2018-03-29T12:02:53.280Z,65.03
2018-03-29T12:03:53.502Z,66.74
2018-03-29T12:04:53.363Z,66.65
2018-03-29T12:05:53.537Z,66.55
2018-03-29T12:06:53.774Z,67.22
2018-03-29T12:07:53.838Z,67.44
2018-03-29T12:08:54.022Z,67.35
2018-03-29T12:09:54.203Z,66.20
2018-03-29T12:10:54.502Z,66.53
2018-03-29T12:11:54.633Z,66.43
2018-03-29T12:12:54.690Z,65.29
2018-03-29T12:13:54.874Z,63.39
2018-03-29T12:14:55.055Z,64.15
2018-03-29T12:15:55.905Z,65.70
2018-03-29T12:16:55.464Z,65.80
2018-03-29T12:17:55.904Z,65.45
2018-03-29T12:18:55.997Z,65.83
2018-03-29T12:19:55.958Z,65.36
2018-03-29T12:20:56.139Z,62.88
2018-03-29T12:21:56.317Z,61.35
2018-03-29T12:22:56.529Z,61.96
2018-03-29T12:23:56.742Z,60.05
2018-03-29T12:24:56.882Z,60.14
2018-03-29T12:25:57.066Z,59.48
2018-03-29T12:26:59.308Z,58.97
2018-03-29T12:27:57.446Z,58.21
2018-03-29T12:28:57.643Z,57.54
2018-03-29T12:29:58.061Z,58.40
2018-03-29T12:30:58.292Z,59.16
2018-03-29T12:31:58.438Z,58.72
2018-03-29T12:32:58.413Z,57.64
2018-03-29T12:33:58.596Z,57.92
2018-03-29T12:34:58.774Z,57.92
2018-03-29T12:35:58.952Z,57.48
2018-03-29T12:36:59.130Z,58.04
2018-03-29T12:37:59.310Z,57.57
2018-03-29T12:38:59.526Z,57.38
2018-03-29T12:39:59.725Z,56.74
2018-03-29T12:40:59.904Z,55.88
2018-03-29T12:42:00.079Z,54.43
2018-03-29T12:43:00.260Z,53.95
2018-03-29T12:44:00.445Z,53.38
2018-03-29T12:45:00.673Z,53.66
2018-03-29T12:46:00.804Z,52.87
2018-03-29T12:47:00.989Z,54.59
2018-03-29T12:48:01.166Z,55.07
2018-03-29T12:49:01.353Z,54.30
2018-03-29T12:50:02.540Z,55.16
2018-03-29T12:51:01.674Z,55.19
2018-03-29T12:52:01.843Z,54.24
2018-03-29T12:53:02.038Z,54.52
2018-03-29T12:54:02.207Z,54.14
2018-03-29T12:55:02.401Z,54.11
2018-03-29T12:56:02.558Z,54.78
2018-03-29T12:57:02.738Z,55.00
2018-03-29T12:58:02.926Z,54.49
2018-03-29T12:59:03.113Z,54.02
2018-03-29T13:00:03.289Z,54.88
2018-03-29T13:01:03.470Z,54.49
2018-03-29T13:02:03.656Z,53.92
2018-03-29T13:03:03.826Z,54.30
2018-03-29T13:04:04.010Z,54.47
2018-03-29T13:05:04.181Z,55.04
2018-03-29T13:06:04.363Z,54.94
2018-03-29T13:07:04.581Z,55.22
2018-03-29T13:08:04.809Z,55.51
2018-03-29T13:09:04.859Z,55.51
2018-03-29T13:10:05.028Z,55.70
2018-03-29T13:11:05.202Z,56.09
2018-03-29T13:12:05.392Z,55.99
2018-03-29T13:13:05.570Z,55.83
2018-03-29T13:14:05.745Z,55.13
2018-03-29T13:15:05.932Z,55.99
2018-03-29T13:16:06.114Z,56.65
2018-03-29T13:17:06.295Z,59.03
2018-03-29T13:18:06.475Z,61.29
2018-03-29T13:19:06.652Z,65.48
2018-03-29T13:20:06.826Z,65.77
2018-03-29T13:21:07.013Z,65.67
2018-03-29T13:22:07.202Z,64.37
2018-03-29T13:23:07.444Z,64.37
2018-03-29T13:24:07.496Z,64.94
2018-03-29T13:25:07.712Z,65.23
2018-03-29T13:26:07.864Z,64.56
2018-03-29T13:27:08.066Z,64.37
2018-03-29T13:28:08.240Z,63.13
2018-03-29T13:29:08.419Z,63.23
2018-03-29T13:30:08.598Z,63.23
2018-03-29T13:31:08.781Z,62.94
2018-03-29T13:32:08.951Z,63.99
2018-03-29T13:33:09.133Z,65.70
2018-03-29T13:34:09.324Z,65.70
2018-03-29T13:35:09.510Z,62.75
2018-03-29T13:36:09.680Z,62.56
2018-03-29T13:37:09.863Z,63.04
2018-03-29T13:38:10.046Z,63.51
2018-03-29T13:39:10.223Z,65.99
2018-03-29T13:40:10.407Z,65.00
2018-03-29T13:41:10.580Z,66.43
2018-03-29T13:42:10.761Z,66.14
2018-03-29T13:43:10.960Z,66.81
2018-03-29T13:44:11.145Z,67.10
2018-03-29T13:45:11.330Z,66.30
2018-03-29T13:46:11.504Z,65.83